sensor_id;sensor_type;location;lat;lon;timestamp;temperature;humidity
47514;DHT22;33951;51.988;5.910;2023-03-24T00:00:37;12.00;99.90
47514;DHT22;33951;51.988;5.910;2023-03-24T00:03:10;11.90;99.90
47514;DHT22;33951;51.988;5.910;2023-03-24T00:05:38;11.90;99.90
47514;DHT22;33951;51.988;5.910;2023-03-24T00:08:04;11.90;99.90
47514;DHT22;33951;51.988;5.910;2023-03-24T00:10:33;11.90;99.90
47514;DHT22;33951;51.988;5.910;2023-03-24T00:13:08;11.80;99.90
47514;DHT22;33951;51.988;5.910;2023-03-24T00:18:39;11.90;99.90
47514;DHT22;33951;51.988;5.910;2023-03-24T00:21:11;11.80;99.90
47514;DHT22;33951;51.988;5.910;2023-03-24T00:23:52;11.90;99.90
47514;DHT22;33951;51.988;5.910;2023-03-24T00:26:44;11.90;99.90
47514;DHT22;33951;51.988;5.910;2023-03-24T00:29:13;11.80;99.90
47514;DHT22;33951;51.988;5.910;2023-03-24T00:31:51;11.80;99.90
47514;DHT22;33951;51.988;5.910;2023-03-24T00:34:52;11.80;99.90
47514;DHT22;33951;51.988;5.910;2023-03-24T00:37:30;11.80;99.90
47514;DHT22;33951;51.988;5.910;2023-03-24T00:40:08;11.80;99.90
47514;DHT22;33951;51.988;5.910;2023-03-24T00:42:43;11.80;99.90
47514;DHT22;33951;51.988;5.910;2023-03-24T00:45:14;11.80;99.90
47514;DHT22;33951;51.988;5.910;2023-03-24T00:47:49;11.80;99.90
47514;DHT22;33951;51.988;5.910;2023-03-24T00:50:24;11.80;99.90
47514;DHT22;33951;51.988;5.910;2023-03-24T00:52:54;11.80;99.90
47514;DHT22;33951;51.988;5.910;2023-03-24T00:55:20;11.90;99.90
47514;DHT22;33951;51.988;5.910;2023-03-24T00:57:53;11.90;99.90
47514;DHT22;33951;51.988;5.910;2023-03-24T05:00:35;10.10;99.90
47514;DHT22;33951;51.988;5.910;2023-03-24T05:03:04;10.10;99.90
47514;DHT22;33951;51.988;5.910;2023-03-24T05:05:30;10.10;99.90
47514;DHT22;33951;51.988;5.910;2023-03-24T05:07:58;10.10;99.90
47514;DHT22;33951;51.988;5.910;2023-03-24T05:10:24;10.10;99.90
47514;DHT22;33951;51.988;5.910;2023-03-24T05:12:56;10.10;99.90
47514;DHT22;33951;51.988;5.910;2023-03-24T05:15:42;10.20;99.90
47514;DHT22;33951;51.988;5.910;2023-03-24T05:18:19;10.00;99.90
47514;DHT22;33951;51.988;5.910;2023-03-24T05:21:15;9.90;99.90
47514;DHT22;33951;51.988;5.910;2023-03-24T05:23:46;10.10;99.90
47514;DHT22;33951;51.988;5.910;2023-03-24T05:26:43;10.00;99.90
47514;DHT22;33951;51.988;5.910;2023-03-24T05:29:41;10.10;99.90
47514;DHT22;33951;51.988;5.910;2023-03-24T05:36:17;9.80;99.90
47514;DHT22;33951;51.988;5.910;2023-03-24T05:39:02;9.80;99.90
47514;DHT22;33951;51.988;5.910;2023-03-24T05:44:46;9.80;99.90
47514;DHT22;33951;51.988;5.910;2023-03-24T05:47:45;9.80;99.90
47514;DHT22;33951;51.988;5.910;2023-03-24T05:57:00;9.80;99.90
47514;DHT22;33951;51.988;5.910;2023-03-24T05:59:42;9.80;99.90
47514;DHT22;33951;51.988;5.910;2023-03-24T06:02:17;9.80;99.90
47514;DHT22;33951;51.988;5.910;2023-03-24T06:05:21;9.80;99.90
47514;DHT22;33951;51.988;5.910;2023-03-24T06:08:15;9.90;99.90
47514;DHT22;33951;51.988;5.910;2023-03-24T06:11:31;9.80;99.90
47514;DHT22;33951;51.988;5.910;2023-03-24T06:14:13;9.90;99.90
47514;DHT22;33951;51.988;5.910;2023-03-24T06:17:30;10.00;99.90
47514;DHT22;33951;51.988;5.910;2023-03-24T06:21:09;10.00;99.90
47514;DHT22;33951;51.988;5.910;2023-03-24T06:30:38;9.90;99.90
47514;DHT22;33951;51.988;5.910;2023-03-24T06:37:16;9.90;99.90
47514;DHT22;33951;51.988;5.910;2023-03-24T06:46:09;10.00;99.90
47514;DHT22;33951;51.988;5.910;2023-03-24T06:49:07;10.00;99.90
47514;DHT22;33951;51.988;5.910;2023-03-24T06:51:49;10.10;99.90
47514;DHT22;33951;51.988;5.910;2023-03-24T06:54:35;10.00;99.90
47514;DHT22;33951;51.988;5.910;2023-03-24T06:57:40;10.10;99.90
47514;DHT22;33951;51.988;5.910;2023-03-24T07:00:43;10.30;99.90
47514;DHT22;33951;51.988;5.910;2023-03-24T07:06:12;10.20;99.90
47514;DHT22;33951;51.988;5.910;2023-03-24T07:15:11;10.30;99.90
47514;DHT22;33951;51.988;5.910;2023-03-24T07:18:01;10.30;99.90
47514;DHT22;33951;51.988;5.910;2023-03-24T07:20:42;10.30;99.90
47514;DHT22;33951;51.988;5.910;2023-03-24T07:24:03;10.30;99.90
47514;DHT22;33951;51.988;5.910;2023-03-24T07:26:31;10.40;99.90
47514;DHT22;33951;51.988;5.910;2023-03-24T07:29:15;10.50;99.90
47514;DHT22;33951;51.988;5.910;2023-03-24T07:31:57;10.50;99.90
47514;DHT22;33951;51.988;5.910;2023-03-24T07:35:44;10.60;99.90
47514;DHT22;33951;51.988;5.910;2023-03-24T07:37:58;10.60;99.90
47514;DHT22;33951;51.988;5.910;2023-03-24T07:44:38;10.70;99.90
47514;DHT22;33951;51.988;5.910;2023-03-24T07:54:52;10.90;99.90
47514;DHT22;33951;51.988;5.910;2023-03-24T07:57:46;10.80;99.90
47514;DHT22;33951;51.988;5.910;2023-03-24T08:04:28;10.90;99.90
47514;DHT22;33951;51.988;5.910;2023-03-24T08:10:53;11.10;99.90
47514;DHT22;33951;51.988;5.910;2023-03-24T08:13:39;11.20;99.90
47514;DHT22;33951;51.988;5.910;2023-03-24T08:16:20;11.30;99.90
47514;DHT22;33951;51.988;5.910;2023-03-24T08:19:04;11.40;99.90
47514;DHT22;33951;51.988;5.910;2023-03-24T08:21:35;11.40;99.90
47514;DHT22;33951;51.988;5.910;2023-03-24T08:24:21;11.40;99.90
47514;DHT22;33951;51.988;5.910;2023-03-24T08:30:18;11.50;99.90
47514;DHT22;33951;51.988;5.910;2023-03-24T08:32:49;11.50;99.90
47514;DHT22;33951;51.988;5.910;2023-03-24T08:41:22;11.60;99.90
47514;DHT22;33951;51.988;5.910;2023-03-24T08:44:16;11.60;99.90
47514;DHT22;33951;51.988;5.910;2023-03-24T08:50:52;11.60;99.90
47514;DHT22;33951;51.988;5.910;2023-03-24T09:04:29;11.80;99.90
47514;DHT22;33951;51.988;5.910;2023-03-24T09:07:14;12.00;99.90
47514;DHT22;33951;51.988;5.910;2023-03-24T09:13:16;12.00;99.90
47514;DHT22;33951;51.988;5.910;2023-03-24T09:22:51;12.40;99.90
47514;DHT22;33951;51.988;5.910;2023-03-24T09:28:57;12.40;99.90
47514;DHT22;33951;51.988;5.910;2023-03-24T09:35:30;12.30;99.90
47514;DHT22;33951;51.988;5.910;2023-03-24T09:38:28;12.30;99.90
47514;DHT22;33951;51.988;5.910;2023-03-24T09:41:33;12.40;99.90
47514;DHT22;33951;51.988;5.910;2023-03-24T09:44:27;12.30;99.90
47514;DHT22;33951;51.988;5.910;2023-03-24T09:47:37;12.40;99.90
47514;DHT22;33951;51.988;5.910;2023-03-24T09:51:03;12.40;99.90
47514;DHT22;33951;51.988;5.910;2023-03-24T10:00:47;12.50;99.90
47514;DHT22;33951;51.988;5.910;2023-03-24T10:43:50;13.20;99.90
47514;DHT22;33951;51.988;5.910;2023-03-24T11:35:48;12.70;99.90
47514;DHT22;33951;51.988;5.910;2023-03-24T14:32:29;10.40;99.90
47514;DHT22;33951;51.988;5.910;2023-03-24T15:10:25;11.90;99.90
47514;DHT22;33951;51.988;5.910;2023-03-24T15:17:45;12.10;99.90
47514;DHT22;33951;51.988;5.910;2023-03-24T15:20:39;12.40;99.90
47514;DHT22;33951;51.988;5.910;2023-03-24T15:23:33;12.40;99.90
47514;DHT22;33951;51.988;5.910;2023-03-24T15:33:29;12.80;99.90
47514;DHT22;33951;51.988;5.910;2023-03-24T15:36:32;12.80;99.90
47514;DHT22;33951;51.988;5.910;2023-03-24T15:42:54;12.80;99.90
47514;DHT22;33951;51.988;5.910;2023-03-24T15:46:04;12.80;99.90
47514;DHT22;33951;51.988;5.910;2023-03-24T15:48:57;12.40;99.90
47514;DHT22;33951;51.988;5.910;2023-03-24T15:55:33;12.10;99.90
47514;DHT22;33951;51.988;5.910;2023-03-24T16:02:01;12.00;99.90
47514;DHT22;33951;51.988;5.910;2023-03-24T16:12:04;12.30;99.90
47514;DHT22;33951;51.988;5.910;2023-03-24T16:15:34;12.40;99.90
47514;DHT22;33951;51.988;5.910;2023-03-24T16:24:36;12.00;99.90
47514;DHT22;33951;51.988;5.910;2023-03-24T16:27:18;12.20;99.90
47514;DHT22;33951;51.988;5.910;2023-03-24T16:30:12;12.20;99.90
47514;DHT22;33951;51.988;5.910;2023-03-24T16:33:09;12.30;99.90
47514;DHT22;33951;51.988;5.910;2023-03-24T16:36:18;12.30;99.90
47514;DHT22;33951;51.988;5.910;2023-03-24T16:39:32;12.20;99.90
47514;DHT22;33951;51.988;5.910;2023-03-24T16:52:56;12.00;99.90
47514;DHT22;33951;51.988;5.910;2023-03-24T16:55:44;12.00;99.90
47514;DHT22;33951;51.988;5.910;2023-03-24T17:05:27;12.10;99.90
47514;DHT22;33951;51.988;5.910;2023-03-24T17:11:18;11.80;99.90
47514;DHT22;33951;51.988;5.910;2023-03-24T17:14:19;11.80;99.90
47514;DHT22;33951;51.988;5.910;2023-03-24T17:20:39;11.80;99.90
47514;DHT22;33951;51.988;5.910;2023-03-24T17:23:14;11.60;99.90
47514;DHT22;33951;51.988;5.910;2023-03-24T17:26:16;11.70;99.90
47514;DHT22;33951;51.988;5.910;2023-03-24T17:29:03;11.60;99.90
47514;DHT22;33951;51.988;5.910;2023-03-24T17:31:57;11.60;99.90
47514;DHT22;33951;51.988;5.910;2023-03-24T17:35:20;11.60;99.90
47514;DHT22;33951;51.988;5.910;2023-03-24T17:52:58;11.60;99.90
47514;DHT22;33951;51.988;5.910;2023-03-24T17:55:29;11.60;99.90
47514;DHT22;33951;51.988;5.910;2023-03-24T18:09:34;11.60;99.90
47514;DHT22;33951;51.988;5.910;2023-03-24T18:12:24;11.60;99.90
47514;DHT22;33951;51.988;5.910;2023-03-24T18:15:13;11.50;99.90
47514;DHT22;33951;51.988;5.910;2023-03-24T18:17:39;11.50;99.90
47514;DHT22;33951;51.988;5.910;2023-03-24T18:20:05;11.60;99.90
47514;DHT22;33951;51.988;5.910;2023-03-24T18:22:36;11.60;99.90
47514;DHT22;33951;51.988;5.910;2023-03-24T18:25:02;11.50;99.90
47514;DHT22;33951;51.988;5.910;2023-03-24T18:27:28;11.50;99.90
47514;DHT22;33951;51.988;5.910;2023-03-24T18:29:54;11.50;99.90
47514;DHT22;33951;51.988;5.910;2023-03-24T18:32:20;11.50;99.90
47514;DHT22;33951;51.988;5.910;2023-03-24T18:34:46;11.50;99.90
47514;DHT22;33951;51.988;5.910;2023-03-24T18:37:12;11.40;99.90
47514;DHT22;33951;51.988;5.910;2023-03-24T18:39:39;11.40;99.90
47514;DHT22;33951;51.988;5.910;2023-03-24T18:42:06;11.40;99.90
47514;DHT22;33951;51.988;5.910;2023-03-24T18:44:33;11.50;99.90
47514;DHT22;33951;51.988;5.910;2023-03-24T18:46:58;11.50;99.90
47514;DHT22;33951;51.988;5.910;2023-03-24T18:49:24;11.50;99.90
47514;DHT22;33951;51.988;5.910;2023-03-24T18:51:52;11.50;99.90
47514;DHT22;33951;51.988;5.910;2023-03-24T18:54:18;11.50;99.90
47514;DHT22;33951;51.988;5.910;2023-03-24T18:56:44;11.40;99.90
47514;DHT22;33951;51.988;5.910;2023-03-24T18:59:09;11.40;99.90
47514;DHT22;33951;51.988;5.910;2023-03-24T19:01:36;11.40;99.90
47514;DHT22;33951;51.988;5.910;2023-03-24T19:04:04;11.40;99.90
47514;DHT22;33951;51.988;5.910;2023-03-24T19:06:30;11.40;99.90
47514;DHT22;33951;51.988;5.910;2023-03-24T19:08:57;11.30;99.90
47514;DHT22;33951;51.988;5.910;2023-03-24T19:11:23;11.40;99.90
47514;DHT22;33951;51.988;5.910;2023-03-24T19:13:49;11.40;99.90
47514;DHT22;33951;51.988;5.910;2023-03-24T19:16:17;11.40;99.90
47514;DHT22;33951;51.988;5.910;2023-03-24T19:18:43;11.30;99.90
47514;DHT22;33951;51.988;5.910;2023-03-24T19:21:09;11.30;99.90
47514;DHT22;33951;51.988;5.910;2023-03-24T19:23:35;11.20;99.90
47514;DHT22;33951;51.988;5.910;2023-03-24T19:26:03;11.20;99.90
47514;DHT22;33951;51.988;5.910;2023-03-24T19:28:31;11.10;99.90
47514;DHT22;33951;51.988;5.910;2023-03-24T19:30:58;11.10;99.90
47514;DHT22;33951;51.988;5.910;2023-03-24T19:33:25;11.10;99.90
47514;DHT22;33951;51.988;5.910;2023-03-24T19:35:51;11.10;99.90
47514;DHT22;33951;51.988;5.910;2023-03-24T19:38:18;11.00;99.90
47514;DHT22;33951;51.988;5.910;2023-03-24T19:40:46;11.00;99.90
47514;DHT22;33951;51.988;5.910;2023-03-24T19:43:21;11.10;99.90
47514;DHT22;33951;51.988;5.910;2023-03-24T19:45:51;10.90;99.90
47514;DHT22;33951;51.988;5.910;2023-03-24T19:48:19;10.80;99.90
47514;DHT22;33951;51.988;5.910;2023-03-24T19:50:48;10.80;99.90
47514;DHT22;33951;51.988;5.910;2023-03-24T19:53:16;10.70;99.90
47514;DHT22;33951;51.988;5.910;2023-03-24T19:55:42;10.60;99.90
47514;DHT22;33951;51.988;5.910;2023-03-24T19:58:07;10.60;99.90
47514;DHT22;33951;51.988;5.910;2023-03-24T20:00:33;10.60;99.90
47514;DHT22;33951;51.988;5.910;2023-03-24T20:02:59;10.50;99.90
47514;DHT22;33951;51.988;5.910;2023-03-24T20:05:26;10.50;99.90
47514;DHT22;33951;51.988;5.910;2023-03-24T20:07:54;10.50;99.90
47514;DHT22;33951;51.988;5.910;2023-03-24T20:10:20;10.40;99.90
47514;DHT22;33951;51.988;5.910;2023-03-24T20:12:46;10.40;99.90
47514;DHT22;33951;51.988;5.910;2023-03-24T20:15:14;10.30;99.90
47514;DHT22;33951;51.988;5.910;2023-03-24T20:17:43;10.30;99.90
47514;DHT22;33951;51.988;5.910;2023-03-24T20:20:12;10.20;99.90
47514;DHT22;33951;51.988;5.910;2023-03-24T20:22:39;10.30;99.90
47514;DHT22;33951;51.988;5.910;2023-03-24T20:25:08;10.20;99.90
47514;DHT22;33951;51.988;5.910;2023-03-24T20:27:34;10.30;99.90
47514;DHT22;33951;51.988;5.910;2023-03-24T20:30:03;10.30;99.90
47514;DHT22;33951;51.988;5.910;2023-03-24T20:32:29;10.30;99.90
47514;DHT22;33951;51.988;5.910;2023-03-24T20:34:55;10.20;99.90
47514;DHT22;33951;51.988;5.910;2023-03-24T20:37:24;10.20;99.90
47514;DHT22;33951;51.988;5.910;2023-03-24T20:39:50;10.10;99.90
47514;DHT22;33951;51.988;5.910;2023-03-24T20:42:16;10.10;99.90
47514;DHT22;33951;51.988;5.910;2023-03-24T20:44:42;10.10;99.90
47514;DHT22;33951;51.988;5.910;2023-03-24T20:47:10;10.00;99.90
47514;DHT22;33951;51.988;5.910;2023-03-24T20:49:36;10.00;99.90
47514;DHT22;33951;51.988;5.910;2023-03-24T20:52:02;10.00;99.90
47514;DHT22;33951;51.988;5.910;2023-03-24T20:54:28;10.00;99.90
47514;DHT22;33951;51.988;5.910;2023-03-24T20:56:53;9.90;99.90
47514;DHT22;33951;51.988;5.910;2023-03-24T20:59:19;9.90;99.90
47514;DHT22;33951;51.988;5.910;2023-03-24T21:01:46;9.90;99.90
47514;DHT22;33951;51.988;5.910;2023-03-24T21:04:15;9.90;99.90
47514;DHT22;33951;51.988;5.910;2023-03-24T21:06:42;9.90;99.90
47514;DHT22;33951;51.988;5.910;2023-03-24T21:09:08;9.90;99.90
47514;DHT22;33951;51.988;5.910;2023-03-24T21:11:34;9.80;99.90
47514;DHT22;33951;51.988;5.910;2023-03-24T21:14:00;9.90;99.90
47514;DHT22;33951;51.988;5.910;2023-03-24T21:16:27;9.90;99.90
47514;DHT22;33951;51.988;5.910;2023-03-24T21:18:53;9.90;99.90
47514;DHT22;33951;51.988;5.910;2023-03-24T21:21:20;9.90;99.90
47514;DHT22;33951;51.988;5.910;2023-03-24T21:23:49;9.90;99.90
47514;DHT22;33951;51.988;5.910;2023-03-24T21:26:17;9.80;99.90
47514;DHT22;33951;51.988;5.910;2023-03-24T21:28:43;9.90;99.90
47514;DHT22;33951;51.988;5.910;2023-03-24T21:31:20;9.90;99.90
47514;DHT22;33951;51.988;5.910;2023-03-24T21:33:46;9.90;99.90
47514;DHT22;33951;51.988;5.910;2023-03-24T21:36:12;9.90;99.90
47514;DHT22;33951;51.988;5.910;2023-03-24T21:38:40;9.80;99.90
47514;DHT22;33951;51.988;5.910;2023-03-24T21:41:07;9.90;99.90
47514;DHT22;33951;51.988;5.910;2023-03-24T21:43:33;9.80;99.90
47514;DHT22;33951;51.988;5.910;2023-03-24T21:45:59;9.80;99.90
47514;DHT22;33951;51.988;5.910;2023-03-24T21:48:26;9.80;99.90
47514;DHT22;33951;51.988;5.910;2023-03-24T21:50:54;9.80;99.90
47514;DHT22;33951;51.988;5.910;2023-03-24T21:53:21;9.80;99.90
47514;DHT22;33951;51.988;5.910;2023-03-24T21:55:51;9.80;99.90
47514;DHT22;33951;51.988;5.910;2023-03-24T21:58:17;9.70;99.90
47514;DHT22;33951;51.988;5.910;2023-03-24T22:00:45;9.80;99.90
47514;DHT22;33951;51.988;5.910;2023-03-24T22:03:11;9.80;99.90
47514;DHT22;33951;51.988;5.910;2023-03-24T22:05:38;9.80;99.90
47514;DHT22;33951;51.988;5.910;2023-03-24T22:08:05;9.80;99.90
47514;DHT22;33951;51.988;5.910;2023-03-24T22:10:33;9.80;99.90
47514;DHT22;33951;51.988;5.910;2023-03-24T22:13:00;9.80;99.90
47514;DHT22;33951;51.988;5.910;2023-03-24T22:15:27;9.80;99.90
47514;DHT22;33951;51.988;5.910;2023-03-24T22:17:53;9.70;99.90
47514;DHT22;33951;51.988;5.910;2023-03-24T22:20:18;9.80;99.90
47514;DHT22;33951;51.988;5.910;2023-03-24T22:22:44;9.70;99.90
47514;DHT22;33951;51.988;5.910;2023-03-24T22:25:12;9.80;99.90
47514;DHT22;33951;51.988;5.910;2023-03-24T22:27:39;9.70;99.90
47514;DHT22;33951;51.988;5.910;2023-03-24T22:30:08;9.80;99.90
47514;DHT22;33951;51.988;5.910;2023-03-24T22:32:37;9.70;99.90
47514;DHT22;33951;51.988;5.910;2023-03-24T22:35:03;9.70;99.90
47514;DHT22;33951;51.988;5.910;2023-03-24T22:37:29;9.70;99.90
47514;DHT22;33951;51.988;5.910;2023-03-24T22:39:58;9.70;99.90
47514;DHT22;33951;51.988;5.910;2023-03-24T22:42:23;9.70;99.90
47514;DHT22;33951;51.988;5.910;2023-03-24T22:44:49;9.70;99.90
47514;DHT22;33951;51.988;5.910;2023-03-24T22:47:15;9.70;99.90
47514;DHT22;33951;51.988;5.910;2023-03-24T22:49:41;9.60;99.90
47514;DHT22;33951;51.988;5.910;2023-03-24T22:52:07;9.70;99.90
47514;DHT22;33951;51.988;5.910;2023-03-24T22:54:33;9.70;99.90
47514;DHT22;33951;51.988;5.910;2023-03-24T22:57:01;9.70;99.90
47514;DHT22;33951;51.988;5.910;2023-03-24T22:59:27;9.70;99.90
47514;DHT22;33951;51.988;5.910;2023-03-24T23:01:56;9.70;99.90
47514;DHT22;33951;51.988;5.910;2023-03-24T23:04:22;9.70;99.90
47514;DHT22;33951;51.988;5.910;2023-03-24T23:06:51;9.60;99.90
47514;DHT22;33951;51.988;5.910;2023-03-24T23:09:17;9.60;99.90
47514;DHT22;33951;51.988;5.910;2023-03-24T23:11:42;9.60;99.90
47514;DHT22;33951;51.988;5.910;2023-03-24T23:14:14;9.60;99.90
47514;DHT22;33951;51.988;5.910;2023-03-24T23:16:43;9.60;99.90
47514;DHT22;33951;51.988;5.910;2023-03-24T23:19:12;9.60;99.90
47514;DHT22;33951;51.988;5.910;2023-03-24T23:21:38;9.60;99.90
47514;DHT22;33951;51.988;5.910;2023-03-24T23:26:55;9.50;99.90
47514;DHT22;33951;51.988;5.910;2023-03-24T23:29:21;9.60;99.90
47514;DHT22;33951;51.988;5.910;2023-03-24T23:31:49;9.50;99.90
47514;DHT22;33951;51.988;5.910;2023-03-24T23:34:21;9.50;99.90
47514;DHT22;33951;51.988;5.910;2023-03-24T23:36:50;9.60;99.90
47514;DHT22;33951;51.988;5.910;2023-03-24T23:39:15;9.50;99.90
47514;DHT22;33951;51.988;5.910;2023-03-24T23:41:41;9.40;99.90
47514;DHT22;33951;51.988;5.910;2023-03-24T23:44:14;9.50;99.90
47514;DHT22;33951;51.988;5.910;2023-03-24T23:46:46;9.50;99.90
47514;DHT22;33951;51.988;5.910;2023-03-24T23:49:15;9.40;99.90
47514;DHT22;33951;51.988;5.910;2023-03-24T23:51:41;9.50;99.90
47514;DHT22;33951;51.988;5.910;2023-03-24T23:54:09;9.40;99.90
47514;DHT22;33951;51.988;5.910;2023-03-24T23:56:35;9.50;99.90
47514;DHT22;33951;51.988;5.910;2023-03-24T23:59:06;9.50;99.90
